sensor_id;sensor_type;location;lat;lon;timestamp;temperature;humidity
32027;DHT22;18543;50.848;4.596;2022-12-16T00:01:33;21.30;46.60
32027;DHT22;18543;50.848;4.596;2022-12-16T00:04:00;21.30;46.70
32027;DHT22;18543;50.848;4.596;2022-12-16T00:06:30;21.30;46.60
32027;DHT22;18543;50.848;4.596;2022-12-16T00:08:59;21.30;46.60
32027;DHT22;18543;50.848;4.596;2022-12-16T00:11:26;21.30;46.60
32027;DHT22;18543;50.848;4.596;2022-12-16T00:13:54;21.30;46.60
32027;DHT22;18543;50.848;4.596;2022-12-16T00:16:21;21.30;46.50
32027;DHT22;18543;50.848;4.596;2022-12-16T00:18:48;21.30;46.50
32027;DHT22;18543;50.848;4.596;2022-12-16T00:21:18;21.30;46.50
32027;DHT22;18543;50.848;4.596;2022-12-16T00:23:46;21.30;46.50
32027;DHT22;18543;50.848;4.596;2022-12-16T00:26:13;21.30;46.50
32027;DHT22;18543;50.848;4.596;2022-12-16T00:28:40;21.30;46.50
32027;DHT22;18543;50.848;4.596;2022-12-16T00:31:09;21.30;46.50
32027;DHT22;18543;50.848;4.596;2022-12-16T00:33:36;21.30;46.50
32027;DHT22;18543;50.848;4.596;2022-12-16T00:36:03;21.30;46.50
32027;DHT22;18543;50.848;4.596;2022-12-16T00:38:30;21.30;46.40
32027;DHT22;18543;50.848;4.596;2022-12-16T00:40:57;21.30;46.50
32027;DHT22;18543;50.848;4.596;2022-12-16T00:43:24;21.30;46.40
32027;DHT22;18543;50.848;4.596;2022-12-16T00:45:51;21.40;46.50
32027;DHT22;18543;50.848;4.596;2022-12-16T00:48:18;21.30;46.40
32027;DHT22;18543;50.848;4.596;2022-12-16T00:50:52;21.40;46.50
32027;DHT22;18543;50.848;4.596;2022-12-16T00:53:22;21.30;46.40
32027;DHT22;18543;50.848;4.596;2022-12-16T00:55:49;21.30;46.40
32027;DHT22;18543;50.848;4.596;2022-12-16T00:58:17;21.40;46.40
32027;DHT22;18543;50.848;4.596;2022-12-16T01:00:44;21.40;46.40
32027;DHT22;18543;50.848;4.596;2022-12-16T01:03:11;21.40;46.40
32027;DHT22;18543;50.848;4.596;2022-12-16T01:05:45;21.40;46.40
32027;DHT22;18543;50.848;4.596;2022-12-16T01:08:11;21.40;46.40
32027;DHT22;18543;50.848;4.596;2022-12-16T01:10:39;21.40;46.40
32027;DHT22;18543;50.848;4.596;2022-12-16T01:13:05;21.40;46.40
32027;DHT22;18543;50.848;4.596;2022-12-16T01:15:33;21.40;46.30
32027;DHT22;18543;50.848;4.596;2022-12-16T01:18:00;21.40;46.40
32027;DHT22;18543;50.848;4.596;2022-12-16T01:20:27;21.40;46.30
32027;DHT22;18543;50.848;4.596;2022-12-16T01:22:54;21.40;46.30
32027;DHT22;18543;50.848;4.596;2022-12-16T01:25:21;21.40;46.30
32027;DHT22;18543;50.848;4.596;2022-12-16T01:27:48;21.40;46.30
32027;DHT22;18543;50.848;4.596;2022-12-16T01:30:16;21.40;46.30
32027;DHT22;18543;50.848;4.596;2022-12-16T01:32:42;21.40;46.30
32027;DHT22;18543;50.848;4.596;2022-12-16T01:35:11;21.40;46.30
32027;DHT22;18543;50.848;4.596;2022-12-16T01:37:58;21.40;46.30
32027;DHT22;18543;50.848;4.596;2022-12-16T01:40:26;21.40;46.20
32027;DHT22;18543;50.848;4.596;2022-12-16T01:42:53;21.40;46.30
32027;DHT22;18543;50.848;4.596;2022-12-16T01:47:52;21.40;46.20
32027;DHT22;18543;50.848;4.596;2022-12-16T01:50:21;21.40;46.20
32027;DHT22;18543;50.848;4.596;2022-12-16T01:52:51;21.40;46.20
32027;DHT22;18543;50.848;4.596;2022-12-16T01:55:23;21.40;46.20
32027;DHT22;18543;50.848;4.596;2022-12-16T01:57:59;21.40;46.20
32027;DHT22;18543;50.848;4.596;2022-12-16T02:00:27;21.40;46.20
32027;DHT22;18543;50.848;4.596;2022-12-16T02:02:57;21.40;46.20
32027;DHT22;18543;50.848;4.596;2022-12-16T02:05:24;21.40;46.20
32027;DHT22;18543;50.848;4.596;2022-12-16T02:08:16;21.40;46.20
32027;DHT22;18543;50.848;4.596;2022-12-16T02:10:46;21.40;46.20
32027;DHT22;18543;50.848;4.596;2022-12-16T02:13:33;21.40;46.20
32027;DHT22;18543;50.848;4.596;2022-12-16T02:16:21;21.40;46.30
32027;DHT22;18543;50.848;4.596;2022-12-16T02:35:34;21.40;46.30
32027;DHT22;18543;50.848;4.596;2022-12-16T02:38:31;21.50;46.40
32027;DHT22;18543;50.848;4.596;2022-12-16T02:41:10;21.40;46.30
32027;DHT22;18543;50.848;4.596;2022-12-16T02:46:21;21.40;46.30
32027;DHT22;18543;50.848;4.596;2022-12-16T02:48:49;21.40;46.30
32027;DHT22;18543;50.848;4.596;2022-12-16T02:51:16;21.50;46.40
32027;DHT22;18543;50.848;4.596;2022-12-16T02:53:44;21.50;46.40
32027;DHT22;18543;50.848;4.596;2022-12-16T03:05:13;21.50;46.40
32027;DHT22;18543;50.848;4.596;2022-12-16T03:07:42;21.50;46.50
32027;DHT22;18543;50.848;4.596;2022-12-16T03:10:14;21.50;46.40
32027;DHT22;18543;50.848;4.596;2022-12-16T03:12:44;21.50;46.50
32027;DHT22;18543;50.848;4.596;2022-12-16T03:15:16;21.50;46.50
32027;DHT22;18543;50.848;4.596;2022-12-16T03:17:46;21.50;46.50
32027;DHT22;18543;50.848;4.596;2022-12-16T03:20:37;21.50;46.40
32027;DHT22;18543;50.848;4.596;2022-12-16T03:23:05;21.50;46.50
32027;DHT22;18543;50.848;4.596;2022-12-16T03:25:36;21.60;46.50
32027;DHT22;18543;50.848;4.596;2022-12-16T03:28:21;21.50;46.50
32027;DHT22;18543;50.848;4.596;2022-12-16T03:30:54;21.50;46.50
32027;DHT22;18543;50.848;4.596;2022-12-16T03:33:27;21.50;46.50
32027;DHT22;18543;50.848;4.596;2022-12-16T03:36:06;21.50;46.50
32027;DHT22;18543;50.848;4.596;2022-12-16T03:38:35;21.50;46.50
32027;DHT22;18543;50.848;4.596;2022-12-16T03:41:03;21.50;46.50
32027;DHT22;18543;50.848;4.596;2022-12-16T03:43:31;21.60;46.60
32027;DHT22;18543;50.848;4.596;2022-12-16T03:46:03;21.60;46.60
32027;DHT22;18543;50.848;4.596;2022-12-16T03:48:32;21.60;46.60
32027;DHT22;18543;50.848;4.596;2022-12-16T03:51:00;21.60;46.60
32027;DHT22;18543;50.848;4.596;2022-12-16T03:53:26;21.60;46.50
32027;DHT22;18543;50.848;4.596;2022-12-16T03:55:54;21.60;46.60
32027;DHT22;18543;50.848;4.596;2022-12-16T03:58:20;21.60;46.60
32027;DHT22;18543;50.848;4.596;2022-12-16T04:00:47;21.60;46.60
32027;DHT22;18543;50.848;4.596;2022-12-16T04:03:14;21.60;46.60
32027;DHT22;18543;50.848;4.596;2022-12-16T04:05:41;21.60;46.60
32027;DHT22;18543;50.848;4.596;2022-12-16T04:08:08;21.60;46.60
32027;DHT22;18543;50.848;4.596;2022-12-16T04:10:35;21.60;46.60
32027;DHT22;18543;50.848;4.596;2022-12-16T04:13:20;21.60;46.60
32027;DHT22;18543;50.848;4.596;2022-12-16T04:16:08;21.60;46.60
32027;DHT22;18543;50.848;4.596;2022-12-16T04:18:58;21.60;46.60
32027;DHT22;18543;50.848;4.596;2022-12-16T04:21:43;21.60;46.70
32027;DHT22;18543;50.848;4.596;2022-12-16T04:24:29;21.60;46.60
32027;DHT22;18543;50.848;4.596;2022-12-16T04:26:56;21.60;46.60
32027;DHT22;18543;50.848;4.596;2022-12-16T04:29:42;21.60;46.60
32027;DHT22;18543;50.848;4.596;2022-12-16T04:32:28;21.70;46.70
32027;DHT22;18543;50.848;4.596;2022-12-16T04:35:15;21.70;46.70
32027;DHT22;18543;50.848;4.596;2022-12-16T04:38:00;21.60;46.60
32027;DHT22;18543;50.848;4.596;2022-12-16T04:40:46;21.70;46.70
32027;DHT22;18543;50.848;4.596;2022-12-16T04:43:31;21.70;46.70
32027;DHT22;18543;50.848;4.596;2022-12-16T04:46:17;21.70;46.70
32027;DHT22;18543;50.848;4.596;2022-12-16T04:49:02;21.70;46.70
32027;DHT22;18543;50.848;4.596;2022-12-16T04:51:47;21.70;46.70
32027;DHT22;18543;50.848;4.596;2022-12-16T04:54:33;21.70;46.70
32027;DHT22;18543;50.848;4.596;2022-12-16T04:57:18;21.70;46.70
32027;DHT22;18543;50.848;4.596;2022-12-16T05:00:04;21.70;46.80
32027;DHT22;18543;50.848;4.596;2022-12-16T05:02:49;21.70;46.70
32027;DHT22;18543;50.848;4.596;2022-12-16T05:05:35;21.70;46.70
32027;DHT22;18543;50.848;4.596;2022-12-16T05:08:21;21.70;46.80
32027;DHT22;18543;50.848;4.596;2022-12-16T05:11:06;21.70;46.70
32027;DHT22;18543;50.848;4.596;2022-12-16T05:13:51;21.70;46.80
32027;DHT22;18543;50.848;4.596;2022-12-16T05:16:37;21.70;46.70
32027;DHT22;18543;50.848;4.596;2022-12-16T05:19:22;21.70;46.60
32027;DHT22;18543;50.848;4.596;2022-12-16T05:22:08;21.70;46.50
32027;DHT22;18543;50.848;4.596;2022-12-16T05:24:53;21.70;46.50
32027;DHT22;18543;50.848;4.596;2022-12-16T05:27:39;21.70;46.50
32027;DHT22;18543;50.848;4.596;2022-12-16T05:30:24;21.70;46.60
32027;DHT22;18543;50.848;4.596;2022-12-16T05:33:09;21.70;46.60
32027;DHT22;18543;50.848;4.596;2022-12-16T05:35:55;21.70;46.60
32027;DHT22;18543;50.848;4.596;2022-12-16T05:38:40;21.70;46.60
32027;DHT22;18543;50.848;4.596;2022-12-16T05:41:25;21.70;46.60
32027;DHT22;18543;50.848;4.596;2022-12-16T05:44:11;21.70;46.70
32027;DHT22;18543;50.848;4.596;2022-12-16T05:46:56;21.70;46.70
32027;DHT22;18543;50.848;4.596;2022-12-16T05:49:42;21.70;46.70
32027;DHT22;18543;50.848;4.596;2022-12-16T05:52:27;21.70;46.70
32027;DHT22;18543;50.848;4.596;2022-12-16T05:55:12;21.70;46.70
32027;DHT22;18543;50.848;4.596;2022-12-16T05:58:00;21.70;46.70
32027;DHT22;18543;50.848;4.596;2022-12-16T06:00:45;21.70;46.70
32027;DHT22;18543;50.848;4.596;2022-12-16T06:03:30;21.70;46.70
32027;DHT22;18543;50.848;4.596;2022-12-16T06:06:16;21.70;46.80
32027;DHT22;18543;50.848;4.596;2022-12-16T06:09:02;21.70;46.90
32027;DHT22;18543;50.848;4.596;2022-12-16T06:12:09;21.70;47.00
32027;DHT22;18543;50.848;4.596;2022-12-16T06:14:54;21.60;47.00
32027;DHT22;18543;50.848;4.596;2022-12-16T06:17:47;21.60;47.10
32027;DHT22;18543;50.848;4.596;2022-12-16T06:20:33;21.50;47.10
32027;DHT22;18543;50.848;4.596;2022-12-16T06:23:19;21.50;47.20
32027;DHT22;18543;50.848;4.596;2022-12-16T06:26:04;21.50;47.40
32027;DHT22;18543;50.848;4.596;2022-12-16T06:28:50;21.40;47.40
32027;DHT22;18543;50.848;4.596;2022-12-16T06:31:35;21.40;47.60
32027;DHT22;18543;50.848;4.596;2022-12-16T06:34:21;21.40;47.70
32027;DHT22;18543;50.848;4.596;2022-12-16T06:37:06;21.30;47.70
32027;DHT22;18543;50.848;4.596;2022-12-16T06:39:52;21.30;47.80
32027;DHT22;18543;50.848;4.596;2022-12-16T06:42:40;21.30;47.80
32027;DHT22;18543;50.848;4.596;2022-12-16T06:45:26;21.30;47.90
32027;DHT22;18543;50.848;4.596;2022-12-16T06:48:12;21.30;48.00
32027;DHT22;18543;50.848;4.596;2022-12-16T06:50:57;21.30;48.00
32027;DHT22;18543;50.848;4.596;2022-12-16T06:53:43;21.20;48.00
32027;DHT22;18543;50.848;4.596;2022-12-16T06:56:28;21.20;48.00
32027;DHT22;18543;50.848;4.596;2022-12-16T06:59:14;21.20;48.00
32027;DHT22;18543;50.848;4.596;2022-12-16T07:01:59;21.20;48.10
32027;DHT22;18543;50.848;4.596;2022-12-16T07:04:45;21.20;48.30
32027;DHT22;18543;50.848;4.596;2022-12-16T07:07:30;21.20;48.30
32027;DHT22;18543;50.848;4.596;2022-12-16T07:10:16;21.20;48.40
32027;DHT22;18543;50.848;4.596;2022-12-16T07:13:01;21.20;48.40
32027;DHT22;18543;50.848;4.596;2022-12-16T07:15:47;21.20;48.50
32027;DHT22;18543;50.848;4.596;2022-12-16T07:18:32;21.20;48.70
32027;DHT22;18543;50.848;4.596;2022-12-16T07:21:18;21.20;49.30
32027;DHT22;18543;50.848;4.596;2022-12-16T07:24:03;21.10;48.20
32027;DHT22;18543;50.848;4.596;2022-12-16T07:26:49;21.10;47.30
32027;DHT22;18543;50.848;4.596;2022-12-16T07:29:34;21.10;47.50
32027;DHT22;18543;50.848;4.596;2022-12-16T07:32:20;21.00;47.50
32027;DHT22;18543;50.848;4.596;2022-12-16T07:35:05;21.00;47.60
32027;DHT22;18543;50.848;4.596;2022-12-16T07:37:50;21.00;47.60
32027;DHT22;18543;50.848;4.596;2022-12-16T07:40:36;21.00;47.60
32027;DHT22;18543;50.848;4.596;2022-12-16T07:43:22;21.00;47.70
32027;DHT22;18543;50.848;4.596;2022-12-16T07:46:08;21.00;47.70
32027;DHT22;18543;50.848;4.596;2022-12-16T07:48:53;21.00;47.60
32027;DHT22;18543;50.848;4.596;2022-12-16T07:51:39;21.00;47.60
32027;DHT22;18543;50.848;4.596;2022-12-16T07:54:28;21.00;47.50
32027;DHT22;18543;50.848;4.596;2022-12-16T07:57:13;20.90;47.40
32027;DHT22;18543;50.848;4.596;2022-12-16T08:00:01;20.90;47.30
32027;DHT22;18543;50.848;4.596;2022-12-16T08:02:54;21.00;47.50
32027;DHT22;18543;50.848;4.596;2022-12-16T08:05:40;20.90;47.50
32027;DHT22;18543;50.848;4.596;2022-12-16T08:08:25;20.30;42.20
32027;DHT22;18543;50.848;4.596;2022-12-16T08:11:10;20.30;44.00
32027;DHT22;18543;50.848;4.596;2022-12-16T08:13:55;20.30;45.20
32027;DHT22;18543;50.848;4.596;2022-12-16T08:16:41;20.40;45.80
32027;DHT22;18543;50.848;4.596;2022-12-16T08:19:26;20.40;46.00
32027;DHT22;18543;50.848;4.596;2022-12-16T08:22:11;20.50;46.10
32027;DHT22;18543;50.848;4.596;2022-12-16T08:24:57;20.60;46.30
32027;DHT22;18543;50.848;4.596;2022-12-16T08:27:43;20.60;46.30
32027;DHT22;18543;50.848;4.596;2022-12-16T08:30:28;20.60;46.40
32027;DHT22;18543;50.848;4.596;2022-12-16T08:33:14;20.70;46.50
32027;DHT22;18543;50.848;4.596;2022-12-16T08:36:00;20.70;46.50
32027;DHT22;18543;50.848;4.596;2022-12-16T08:38:45;20.70;47.10
32027;DHT22;18543;50.848;4.596;2022-12-16T08:41:31;20.80;46.60
32027;DHT22;18543;50.848;4.596;2022-12-16T08:44:16;20.80;46.70
32027;DHT22;18543;50.848;4.596;2022-12-16T08:47:02;20.80;46.70
32027;DHT22;18543;50.848;4.596;2022-12-16T08:49:47;20.80;46.70
32027;DHT22;18543;50.848;4.596;2022-12-16T08:52:33;20.90;46.80
32027;DHT22;18543;50.848;4.596;2022-12-16T08:55:18;20.90;46.80
32027;DHT22;18543;50.848;4.596;2022-12-16T08:58:04;20.90;46.90
32027;DHT22;18543;50.848;4.596;2022-12-16T09:00:49;20.90;46.90
32027;DHT22;18543;50.848;4.596;2022-12-16T09:03:35;20.90;46.90
32027;DHT22;18543;50.848;4.596;2022-12-16T09:06:21;21.00;47.00
32027;DHT22;18543;50.848;4.596;2022-12-16T09:09:08;21.00;47.10
32027;DHT22;18543;50.848;4.596;2022-12-16T09:11:53;21.00;47.10
32027;DHT22;18543;50.848;4.596;2022-12-16T09:14:39;21.00;47.10
32027;DHT22;18543;50.848;4.596;2022-12-16T09:17:24;21.00;47.10
32027;DHT22;18543;50.848;4.596;2022-12-16T09:20:10;21.00;47.10
32027;DHT22;18543;50.848;4.596;2022-12-16T09:22:55;21.10;47.20
32027;DHT22;18543;50.848;4.596;2022-12-16T09:25:41;21.10;47.20
32027;DHT22;18543;50.848;4.596;2022-12-16T09:28:26;21.10;47.20
32027;DHT22;18543;50.848;4.596;2022-12-16T09:31:14;21.10;47.20
32027;DHT22;18543;50.848;4.596;2022-12-16T09:33:59;21.10;47.30
32027;DHT22;18543;50.848;4.596;2022-12-16T09:37:01;21.10;47.30
32027;DHT22;18543;50.848;4.596;2022-12-16T09:39:47;21.20;47.40
32027;DHT22;18543;50.848;4.596;2022-12-16T09:42:48;21.20;47.30
32027;DHT22;18543;50.848;4.596;2022-12-16T09:51:46;21.20;47.40
32027;DHT22;18543;50.848;4.596;2022-12-16T09:54:34;21.20;47.40
32027;DHT22;18543;50.848;4.596;2022-12-16T09:57:21;21.20;47.40
32027;DHT22;18543;50.848;4.596;2022-12-16T10:00:22;21.20;47.40
32027;DHT22;18543;50.848;4.596;2022-12-16T10:03:20;21.30;47.50
32027;DHT22;18543;50.848;4.596;2022-12-16T10:06:16;21.30;47.50
32027;DHT22;18543;50.848;4.596;2022-12-16T10:12:22;21.30;47.50
32027;DHT22;18543;50.848;4.596;2022-12-16T10:15:30;21.30;47.50
32027;DHT22;18543;50.848;4.596;2022-12-16T10:21:10;21.40;47.60
32027;DHT22;18543;50.848;4.596;2022-12-16T10:24:08;21.40;47.60
32027;DHT22;18543;50.848;4.596;2022-12-16T10:27:11;21.40;47.60
32027;DHT22;18543;50.848;4.596;2022-12-16T10:29:57;21.40;47.60
32027;DHT22;18543;50.848;4.596;2022-12-16T10:32:46;21.40;47.60
32027;DHT22;18543;50.848;4.596;2022-12-16T10:35:48;21.40;47.60
32027;DHT22;18543;50.848;4.596;2022-12-16T10:38:38;21.40;47.60
32027;DHT22;18543;50.848;4.596;2022-12-16T10:41:28;21.40;47.60
32027;DHT22;18543;50.848;4.596;2022-12-16T10:44:23;21.40;47.60
32027;DHT22;18543;50.848;4.596;2022-12-16T10:47:10;21.40;47.60
32027;DHT22;18543;50.848;4.596;2022-12-16T10:49:55;21.50;47.70
32027;DHT22;18543;50.848;4.596;2022-12-16T10:53:01;21.50;47.70
32027;DHT22;18543;50.848;4.596;2022-12-16T10:58:50;21.50;47.70
32027;DHT22;18543;50.848;4.596;2022-12-16T11:01:37;21.50;47.70
32027;DHT22;18543;50.848;4.596;2022-12-16T11:04:36;21.50;48.30
32027;DHT22;18543;50.848;4.596;2022-12-16T11:07:49;21.50;47.70
32027;DHT22;18543;50.848;4.596;2022-12-16T11:10:55;21.50;47.70
32027;DHT22;18543;50.848;4.596;2022-12-16T11:13:40;21.50;47.70
32027;DHT22;18543;50.848;4.596;2022-12-16T11:16:27;21.50;47.70
32027;DHT22;18543;50.848;4.596;2022-12-16T11:19:22;21.50;47.70
32027;DHT22;18543;50.848;4.596;2022-12-16T11:22:16;21.50;47.70
32027;DHT22;18543;50.848;4.596;2022-12-16T11:25:19;21.60;47.80
32027;DHT22;18543;50.848;4.596;2022-12-16T11:28:14;21.60;47.80
32027;DHT22;18543;50.848;4.596;2022-12-16T11:31:04;21.60;48.40
32027;DHT22;18543;50.848;4.596;2022-12-16T11:33:51;21.60;47.80
32027;DHT22;18543;50.848;4.596;2022-12-16T11:36:39;21.60;47.80
32027;DHT22;18543;50.848;4.596;2022-12-16T11:39:26;21.60;47.80
32027;DHT22;18543;50.848;4.596;2022-12-16T11:42:25;21.60;47.80
32027;DHT22;18543;50.848;4.596;2022-12-16T11:45:14;21.60;47.80
32027;DHT22;18543;50.848;4.596;2022-12-16T11:48:10;21.60;47.80
32027;DHT22;18543;50.848;4.596;2022-12-16T11:50:58;21.70;47.90
32027;DHT22;18543;50.848;4.596;2022-12-16T11:53:46;21.60;47.80
32027;DHT22;18543;50.848;4.596;2022-12-16T11:56:39;21.70;47.90
32027;DHT22;18543;50.848;4.596;2022-12-16T12:05:13;21.70;47.90
32027;DHT22;18543;50.848;4.596;2022-12-16T12:08:14;21.70;47.90
32027;DHT22;18543;50.848;4.596;2022-12-16T12:11:23;21.70;47.90
32027;DHT22;18543;50.848;4.596;2022-12-16T12:18:00;21.70;47.90
32027;DHT22;18543;50.848;4.596;2022-12-16T12:27:13;21.70;48.00
32027;DHT22;18543;50.848;4.596;2022-12-16T12:30:04;21.70;48.10
32027;DHT22;18543;50.848;4.596;2022-12-16T12:35:53;21.70;48.10
32027;DHT22;18543;50.848;4.596;2022-12-16T12:38:51;21.70;48.10
32027;DHT22;18543;50.848;4.596;2022-12-16T12:41:54;21.70;48.10
32027;DHT22;18543;50.848;4.596;2022-12-16T12:48:12;21.80;48.10
32027;DHT22;18543;50.848;4.596;2022-12-16T12:54:09;21.80;48.20
32027;DHT22;18543;50.848;4.596;2022-12-16T12:56:59;21.80;48.20
32027;DHT22;18543;50.848;4.596;2022-12-16T13:00:03;21.80;48.20
32027;DHT22;18543;50.848;4.596;2022-12-16T13:03:00;21.80;48.20
32027;DHT22;18543;50.848;4.596;2022-12-16T13:05:48;21.80;48.20
32027;DHT22;18543;50.848;4.596;2022-12-16T13:08:52;21.80;48.20
32027;DHT22;18543;50.848;4.596;2022-12-16T13:20:57;21.80;48.20
32027;DHT22;18543;50.848;4.596;2022-12-16T13:23:44;21.80;48.20
32027;DHT22;18543;50.848;4.596;2022-12-16T13:26:32;21.80;48.20
32027;DHT22;18543;50.848;4.596;2022-12-16T13:29:26;21.80;48.20
32027;DHT22;18543;50.848;4.596;2022-12-16T13:32:20;21.80;48.20
32027;DHT22;18543;50.848;4.596;2022-12-16T13:38:01;21.80;48.20
32027;DHT22;18543;50.848;4.596;2022-12-16T13:46:47;21.90;48.30
32027;DHT22;18543;50.848;4.596;2022-12-16T13:55:30;21.80;48.20
32027;DHT22;18543;50.848;4.596;2022-12-16T14:04:38;21.80;48.20
32027;DHT22;18543;50.848;4.596;2022-12-16T14:07:25;21.80;48.20
32027;DHT22;18543;50.848;4.596;2022-12-16T14:10:24;21.80;48.20
32027;DHT22;18543;50.848;4.596;2022-12-16T14:13:26;21.80;48.30
32027;DHT22;18543;50.848;4.596;2022-12-16T14:26:23;21.80;48.20
32027;DHT22;18543;50.848;4.596;2022-12-16T14:29:28;21.80;48.20
32027;DHT22;18543;50.848;4.596;2022-12-16T14:32:34;21.80;48.20
32027;DHT22;18543;50.848;4.596;2022-12-16T14:35:22;21.80;48.20
32027;DHT22;18543;50.848;4.596;2022-12-16T14:38:28;21.80;48.10
32027;DHT22;18543;50.848;4.596;2022-12-16T14:41:18;21.80;48.20
32027;DHT22;18543;50.848;4.596;2022-12-16T14:44:14;21.80;48.20
32027;DHT22;18543;50.848;4.596;2022-12-16T14:47:00;21.80;48.10
32027;DHT22;18543;50.848;4.596;2022-12-16T14:49:50;21.80;48.10
32027;DHT22;18543;50.848;4.596;2022-12-16T14:52:35;21.80;48.10
32027;DHT22;18543;50.848;4.596;2022-12-16T14:55:32;21.80;48.10
32027;DHT22;18543;50.848;4.596;2022-12-16T14:58:20;21.90;48.10
32027;DHT22;18543;50.848;4.596;2022-12-16T15:01:19;21.90;48.10
32027;DHT22;18543;50.848;4.596;2022-12-16T15:04:16;21.90;48.10
32027;DHT22;18543;50.848;4.596;2022-12-16T15:07:11;21.90;48.10
32027;DHT22;18543;50.848;4.596;2022-12-16T15:09:58;21.90;48.00
32027;DHT22;18543;50.848;4.596;2022-12-16T15:12:45;21.90;48.00
32027;DHT22;18543;50.848;4.596;2022-12-16T15:15:35;21.90;48.00
32027;DHT22;18543;50.848;4.596;2022-12-16T15:18:35;21.90;48.00
32027;DHT22;18543;50.848;4.596;2022-12-16T15:21:22;21.90;48.00
32027;DHT22;18543;50.848;4.596;2022-12-16T15:24:09;21.90;48.00
32027;DHT22;18543;50.848;4.596;2022-12-16T15:27:21;21.90;47.90
32027;DHT22;18543;50.848;4.596;2022-12-16T15:30:44;21.90;47.90
32027;DHT22;18543;50.848;4.596;2022-12-16T15:36:31;21.90;47.90
32027;DHT22;18543;50.848;4.596;2022-12-16T15:39:22;21.90;47.90
32027;DHT22;18543;50.848;4.596;2022-12-16T15:42:26;21.90;47.80
32027;DHT22;18543;50.848;4.596;2022-12-16T15:45:26;21.90;47.90
32027;DHT22;18543;50.848;4.596;2022-12-16T15:48:28;21.90;47.80
32027;DHT22;18543;50.848;4.596;2022-12-16T15:54:21;21.90;47.80
32027;DHT22;18543;50.848;4.596;2022-12-16T15:57:31;21.90;47.80
32027;DHT22;18543;50.848;4.596;2022-12-16T16:03:24;21.90;47.00
32027;DHT22;18543;50.848;4.596;2022-12-16T16:06:22;21.90;46.90
32027;DHT22;18543;50.848;4.596;2022-12-16T16:09:19;21.90;47.10
32027;DHT22;18543;50.848;4.596;2022-12-16T16:12:06;21.90;47.10
32027;DHT22;18543;50.848;4.596;2022-12-16T16:14:52;21.80;47.10
32027;DHT22;18543;50.848;4.596;2022-12-16T16:17:38;21.90;47.20
32027;DHT22;18543;50.848;4.596;2022-12-16T16:20:23;21.80;47.20
32027;DHT22;18543;50.848;4.596;2022-12-16T16:23:09;21.90;47.20
32027;DHT22;18543;50.848;4.596;2022-12-16T16:25:55;21.90;47.30
32027;DHT22;18543;50.848;4.596;2022-12-16T16:28:40;21.90;47.20
32027;DHT22;18543;50.848;4.596;2022-12-16T16:31:26;21.90;47.30
32027;DHT22;18543;50.848;4.596;2022-12-16T16:34:11;21.80;46.70
32027;DHT22;18543;50.848;4.596;2022-12-16T16:36:57;21.70;42.90
32027;DHT22;18543;50.848;4.596;2022-12-16T16:39:43;21.60;42.70
32027;DHT22;18543;50.848;4.596;2022-12-16T16:42:28;21.50;43.20
32027;DHT22;18543;50.848;4.596;2022-12-16T16:45:14;21.50;44.00
32027;DHT22;18543;50.848;4.596;2022-12-16T16:48:08;21.50;44.60
32027;DHT22;18543;50.848;4.596;2022-12-16T16:50:56;21.50;44.90
32027;DHT22;18543;50.848;4.596;2022-12-16T16:53:41;21.50;45.10
32027;DHT22;18543;50.848;4.596;2022-12-16T16:56:29;21.50;45.30
32027;DHT22;18543;50.848;4.596;2022-12-16T16:59:14;21.50;45.30
32027;DHT22;18543;50.848;4.596;2022-12-16T17:02:00;21.50;45.30
32027;DHT22;18543;50.848;4.596;2022-12-16T17:04:45;21.50;45.50
32027;DHT22;18543;50.848;4.596;2022-12-16T17:07:31;21.50;45.60
32027;DHT22;18543;50.848;4.596;2022-12-16T17:10:19;21.60;45.70
32027;DHT22;18543;50.848;4.596;2022-12-16T17:13:05;21.60;45.70
32027;DHT22;18543;50.848;4.596;2022-12-16T17:15:50;21.50;45.70
32027;DHT22;18543;50.848;4.596;2022-12-16T17:18:35;21.50;45.70
32027;DHT22;18543;50.848;4.596;2022-12-16T17:21:20;21.50;45.80
32027;DHT22;18543;50.848;4.596;2022-12-16T17:24:06;21.60;45.90
32027;DHT22;18543;50.848;4.596;2022-12-16T17:26:51;21.60;45.90
32027;DHT22;18543;50.848;4.596;2022-12-16T17:29:37;21.60;45.90
32027;DHT22;18543;50.848;4.596;2022-12-16T17:32:22;21.60;45.90
32027;DHT22;18543;50.848;4.596;2022-12-16T17:35:10;21.60;45.90
32027;DHT22;18543;50.848;4.596;2022-12-16T17:38:15;21.60;45.90
32027;DHT22;18543;50.848;4.596;2022-12-16T17:41:01;21.60;45.90
32027;DHT22;18543;50.848;4.596;2022-12-16T17:43:46;21.60;46.00
32027;DHT22;18543;50.848;4.596;2022-12-16T17:46:35;21.60;46.00
32027;DHT22;18543;50.848;4.596;2022-12-16T17:49:21;21.60;46.00
32027;DHT22;18543;50.848;4.596;2022-12-16T17:52:06;21.60;45.80
32027;DHT22;18543;50.848;4.596;2022-12-16T17:54:51;21.50;45.90
32027;DHT22;18543;50.848;4.596;2022-12-16T17:57:37;21.50;46.00
32027;DHT22;18543;50.848;4.596;2022-12-16T18:00:22;21.40;46.00
32027;DHT22;18543;50.848;4.596;2022-12-16T18:03:08;21.40;46.10
32027;DHT22;18543;50.848;4.596;2022-12-16T18:05:56;21.40;46.40
32027;DHT22;18543;50.848;4.596;2022-12-16T18:08:42;21.30;45.30
32027;DHT22;18543;50.848;4.596;2022-12-16T18:11:27;21.20;45.40
32027;DHT22;18543;50.848;4.596;2022-12-16T18:14:13;21.20;46.10
32027;DHT22;18543;50.848;4.596;2022-12-16T18:16:58;21.20;46.30
32027;DHT22;18543;50.848;4.596;2022-12-16T18:19:44;21.20;46.60
32027;DHT22;18543;50.848;4.596;2022-12-16T18:22:29;21.20;46.70
32027;DHT22;18543;50.848;4.596;2022-12-16T18:25:15;21.20;46.70
32027;DHT22;18543;50.848;4.596;2022-12-16T18:28:00;21.20;46.80
32027;DHT22;18543;50.848;4.596;2022-12-16T18:30:45;21.20;47.00
32027;DHT22;18543;50.848;4.596;2022-12-16T18:33:31;21.20;47.00
32027;DHT22;18543;50.848;4.596;2022-12-16T18:36:17;21.10;47.00
32027;DHT22;18543;50.848;4.596;2022-12-16T18:39:02;21.10;47.10
32027;DHT22;18543;50.848;4.596;2022-12-16T18:41:48;21.10;47.20
32027;DHT22;18543;50.848;4.596;2022-12-16T18:44:33;21.10;47.30
32027;DHT22;18543;50.848;4.596;2022-12-16T18:47:26;21.00;47.20
32027;DHT22;18543;50.848;4.596;2022-12-16T18:50:11;21.10;47.40
32027;DHT22;18543;50.848;4.596;2022-12-16T18:53:04;21.00;47.40
32027;DHT22;18543;50.848;4.596;2022-12-16T18:56:02;21.10;47.50
32027;DHT22;18543;50.848;4.596;2022-12-16T18:59:04;21.10;47.60
32027;DHT22;18543;50.848;4.596;2022-12-16T19:01:49;21.10;47.60
32027;DHT22;18543;50.848;4.596;2022-12-16T19:04:35;21.10;47.60
32027;DHT22;18543;50.848;4.596;2022-12-16T19:07:20;21.10;47.60
32027;DHT22;18543;50.848;4.596;2022-12-16T19:10:06;21.10;47.60
32027;DHT22;18543;50.848;4.596;2022-12-16T19:12:59;21.10;47.60
32027;DHT22;18543;50.848;4.596;2022-12-16T19:15:55;21.10;47.60
32027;DHT22;18543;50.848;4.596;2022-12-16T19:18:41;21.10;47.60
32027;DHT22;18543;50.848;4.596;2022-12-16T19:21:27;21.10;47.60